sensor_id;sensor_type;location;lat;lon;timestamp;temperature;humidity
20139;DHT22;10230;51.502;10.800;2023-04-03T00:01:12;2.80;99.90
20139;DHT22;10230;51.502;10.800;2023-04-03T00:03:38;2.70;99.90
20139;DHT22;10230;51.502;10.800;2023-04-03T00:06:04;2.70;99.90
20139;DHT22;10230;51.502;10.800;2023-04-03T00:10:58;2.60;99.90
20139;DHT22;10230;51.502;10.800;2023-04-03T00:13:24;2.60;99.90
20139;DHT22;10230;51.502;10.800;2023-04-03T00:15:51;2.60;99.90
20139;DHT22;10230;51.502;10.800;2023-04-03T00:18:17;2.50;99.90
20139;DHT22;10230;51.502;10.800;2023-04-03T00:20:43;2.50;99.90
20139;DHT22;10230;51.502;10.800;2023-04-03T00:23:08;2.50;99.90
20139;DHT22;10230;51.502;10.800;2023-04-03T00:25:34;2.40;99.90
20139;DHT22;10230;51.502;10.800;2023-04-03T00:28:00;2.40;99.90
20139;DHT22;10230;51.502;10.800;2023-04-03T00:30:26;2.40;99.90
20139;DHT22;10230;51.502;10.800;2023-04-03T00:32:52;2.40;99.90
20139;DHT22;10230;51.502;10.800;2023-04-03T00:35:20;2.30;99.90
20139;DHT22;10230;51.502;10.800;2023-04-03T00:37:46;2.30;99.90
20139;DHT22;10230;51.502;10.800;2023-04-03T00:40:13;2.30;99.90
20139;DHT22;10230;51.502;10.800;2023-04-03T00:42:43;2.20;99.90
20139;DHT22;10230;51.502;10.800;2023-04-03T00:45:40;2.20;99.90
20139;DHT22;10230;51.502;10.800;2023-04-03T00:48:09;2.20;99.90
20139;DHT22;10230;51.502;10.800;2023-04-03T00:50:39;2.20;99.90
20139;DHT22;10230;51.502;10.800;2023-04-03T00:53:09;2.20;99.90
20139;DHT22;10230;51.502;10.800;2023-04-03T00:55:37;2.10;99.90
20139;DHT22;10230;51.502;10.800;2023-04-03T00:58:04;2.10;99.90
20139;DHT22;10230;51.502;10.800;2023-04-03T01:00:32;2.10;99.90
20139;DHT22;10230;51.502;10.800;2023-04-03T01:02:59;2.10;99.90
20139;DHT22;10230;51.502;10.800;2023-04-03T01:05:25;2.10;99.90
20139;DHT22;10230;51.502;10.800;2023-04-03T01:07:52;2.00;99.90
20139;DHT22;10230;51.502;10.800;2023-04-03T01:10:19;2.00;99.90
20139;DHT22;10230;51.502;10.800;2023-04-03T01:12:47;2.10;99.90
20139;DHT22;10230;51.502;10.800;2023-04-03T01:15:19;2.10;99.90
20139;DHT22;10230;51.502;10.800;2023-04-03T01:18:03;2.00;99.90
20139;DHT22;10230;51.502;10.800;2023-04-03T01:25:42;2.00;99.90
20139;DHT22;10230;51.502;10.800;2023-04-03T01:28:13;2.00;99.90
20139;DHT22;10230;51.502;10.800;2023-04-03T01:33:16;2.00;99.90
20139;DHT22;10230;51.502;10.800;2023-04-03T01:35:42;2.00;99.90
20139;DHT22;10230;51.502;10.800;2023-04-03T01:38:08;2.00;99.90
20139;DHT22;10230;51.502;10.800;2023-04-03T01:40:33;1.90;99.90
20139;DHT22;10230;51.502;10.800;2023-04-03T01:42:59;1.90;99.90
20139;DHT22;10230;51.502;10.800;2023-04-03T01:45:25;1.90;99.90
20139;DHT22;10230;51.502;10.800;2023-04-03T01:47:50;1.90;99.90
20139;DHT22;10230;51.502;10.800;2023-04-03T01:50:16;1.80;99.90
20139;DHT22;10230;51.502;10.800;2023-04-03T01:55:08;1.80;99.90
20139;DHT22;10230;51.502;10.800;2023-04-03T01:57:34;1.80;99.90
20139;DHT22;10230;51.502;10.800;2023-04-03T01:59:59;1.80;99.90
20139;DHT22;10230;51.502;10.800;2023-04-03T02:02:25;1.80;99.90
20139;DHT22;10230;51.502;10.800;2023-04-03T02:04:51;1.70;99.90
20139;DHT22;10230;51.502;10.800;2023-04-03T02:07:16;1.70;99.90
20139;DHT22;10230;51.502;10.800;2023-04-03T02:09:42;1.70;99.90
20139;DHT22;10230;51.502;10.800;2023-04-03T02:12:07;1.70;99.90
20139;DHT22;10230;51.502;10.800;2023-04-03T02:14:33;1.70;99.90
20139;DHT22;10230;51.502;10.800;2023-04-03T02:17:00;1.70;99.90
20139;DHT22;10230;51.502;10.800;2023-04-03T02:19:26;1.60;99.90
20139;DHT22;10230;51.502;10.800;2023-04-03T02:21:51;1.60;99.90
20139;DHT22;10230;51.502;10.800;2023-04-03T02:24:17;1.60;99.90
20139;DHT22;10230;51.502;10.800;2023-04-03T02:26:43;1.60;99.90
20139;DHT22;10230;51.502;10.800;2023-04-03T02:29:08;1.60;99.90
20139;DHT22;10230;51.502;10.800;2023-04-03T02:34:00;1.50;99.90
20139;DHT22;10230;51.502;10.800;2023-04-03T02:36:26;1.50;99.90
20139;DHT22;10230;51.502;10.800;2023-04-03T02:38:51;1.50;99.90
20139;DHT22;10230;51.502;10.800;2023-04-03T02:41:17;1.50;99.90
20139;DHT22;10230;51.502;10.800;2023-04-03T02:43:42;1.50;99.90
20139;DHT22;10230;51.502;10.800;2023-04-03T02:46:08;1.40;99.90
20139;DHT22;10230;51.502;10.800;2023-04-03T02:48:34;1.40;99.90
20139;DHT22;10230;51.502;10.800;2023-04-03T02:51:00;1.40;99.90
20139;DHT22;10230;51.502;10.800;2023-04-03T02:53:26;1.40;99.90
20139;DHT22;10230;51.502;10.800;2023-04-03T02:55:52;1.30;99.90
20139;DHT22;10230;51.502;10.800;2023-04-03T02:58:17;1.30;99.90
20139;DHT22;10230;51.502;10.800;2023-04-03T03:00:43;1.20;99.90
20139;DHT22;10230;51.502;10.800;2023-04-03T03:03:08;1.20;99.90
20139;DHT22;10230;51.502;10.800;2023-04-03T03:05:34;1.20;99.90
20139;DHT22;10230;51.502;10.800;2023-04-03T03:08:01;1.10;99.90
20139;DHT22;10230;51.502;10.800;2023-04-03T03:10:27;1.10;99.90
20139;DHT22;10230;51.502;10.800;2023-04-03T03:12:52;1.00;99.90
20139;DHT22;10230;51.502;10.800;2023-04-03T03:17:45;1.00;99.90
20139;DHT22;10230;51.502;10.800;2023-04-03T03:20:11;1.00;99.90
20139;DHT22;10230;51.502;10.800;2023-04-03T03:22:37;1.00;99.90
20139;DHT22;10230;51.502;10.800;2023-04-03T03:25:03;0.90;99.90
20139;DHT22;10230;51.502;10.800;2023-04-03T03:27:29;1.00;99.90
20139;DHT22;10230;51.502;10.800;2023-04-03T03:29:55;0.90;99.90
20139;DHT22;10230;51.502;10.800;2023-04-03T03:32:21;0.90;99.90
20139;DHT22;10230;51.502;10.800;2023-04-03T03:34:46;0.90;99.90
20139;DHT22;10230;51.502;10.800;2023-04-03T03:37:12;0.90;99.90
20139;DHT22;10230;51.502;10.800;2023-04-03T03:39:38;0.90;99.90
20139;DHT22;10230;51.502;10.800;2023-04-03T03:42:03;0.80;99.90
20139;DHT22;10230;51.502;10.800;2023-04-03T03:44:29;0.80;99.90
20139;DHT22;10230;51.502;10.800;2023-04-03T03:46:55;0.80;99.90
20139;DHT22;10230;51.502;10.800;2023-04-03T03:49:21;0.80;99.90
20139;DHT22;10230;51.502;10.800;2023-04-03T03:51:47;0.80;99.90
20139;DHT22;10230;51.502;10.800;2023-04-03T03:54:13;0.80;99.90
20139;DHT22;10230;51.502;10.800;2023-04-03T03:56:39;0.80;99.90
20139;DHT22;10230;51.502;10.800;2023-04-03T03:59:04;0.80;99.90
20139;DHT22;10230;51.502;10.800;2023-04-03T04:01:30;0.80;99.90
20139;DHT22;10230;51.502;10.800;2023-04-03T04:03:56;0.80;99.90
20139;DHT22;10230;51.502;10.800;2023-04-03T04:06:21;0.70;99.90
20139;DHT22;10230;51.502;10.800;2023-04-03T04:08:47;0.80;99.90
20139;DHT22;10230;51.502;10.800;2023-04-03T04:11:13;0.70;99.90
20139;DHT22;10230;51.502;10.800;2023-04-03T04:13:38;0.80;99.90
20139;DHT22;10230;51.502;10.800;2023-04-03T04:16:04;0.80;99.90
20139;DHT22;10230;51.502;10.800;2023-04-03T04:18:30;0.80;99.90
20139;DHT22;10230;51.502;10.800;2023-04-03T04:20:56;0.80;99.90
20139;DHT22;10230;51.502;10.800;2023-04-03T04:23:22;0.80;99.90
20139;DHT22;10230;51.502;10.800;2023-04-03T04:25:48;0.80;99.90
20139;DHT22;10230;51.502;10.800;2023-04-03T04:28:15;0.70;99.90
20139;DHT22;10230;51.502;10.800;2023-04-03T04:30:41;0.80;99.90
20139;DHT22;10230;51.502;10.800;2023-04-03T04:33:06;0.80;99.90
20139;DHT22;10230;51.502;10.800;2023-04-03T04:35:33;0.80;99.90
20139;DHT22;10230;51.502;10.800;2023-04-03T04:37:59;0.70;99.90
20139;DHT22;10230;51.502;10.800;2023-04-03T04:40:25;0.80;99.90
20139;DHT22;10230;51.502;10.800;2023-04-03T04:42:51;0.70;99.90
20139;DHT22;10230;51.502;10.800;2023-04-03T04:45:17;0.70;99.90
20139;DHT22;10230;51.502;10.800;2023-04-03T04:47:43;0.70;99.90
20139;DHT22;10230;51.502;10.800;2023-04-03T04:50:09;0.70;99.90
20139;DHT22;10230;51.502;10.800;2023-04-03T04:52:35;0.70;99.90
20139;DHT22;10230;51.502;10.800;2023-04-03T04:55:00;0.70;99.90
20139;DHT22;10230;51.502;10.800;2023-04-03T04:57:26;0.70;99.90
20139;DHT22;10230;51.502;10.800;2023-04-03T04:59:52;0.70;99.90
20139;DHT22;10230;51.502;10.800;2023-04-03T05:02:17;0.70;99.90
20139;DHT22;10230;51.502;10.800;2023-04-03T05:04:43;0.80;99.90
20139;DHT22;10230;51.502;10.800;2023-04-03T05:07:09;0.80;99.90
20139;DHT22;10230;51.502;10.800;2023-04-03T05:09:35;0.80;99.90
20139;DHT22;10230;51.502;10.800;2023-04-03T05:12:01;0.80;99.90
20139;DHT22;10230;51.502;10.800;2023-04-03T05:14:29;0.80;99.90
20139;DHT22;10230;51.502;10.800;2023-04-03T05:16:55;0.80;99.90
20139;DHT22;10230;51.502;10.800;2023-04-03T05:19:21;0.90;99.90
20139;DHT22;10230;51.502;10.800;2023-04-03T05:21:47;0.90;99.90
20139;DHT22;10230;51.502;10.800;2023-04-03T05:24:14;0.90;99.90
20139;DHT22;10230;51.502;10.800;2023-04-03T05:26:40;1.00;99.90
20139;DHT22;10230;51.502;10.800;2023-04-03T05:29:06;1.00;99.90
20139;DHT22;10230;51.502;10.800;2023-04-03T05:31:32;1.10;99.90
20139;DHT22;10230;51.502;10.800;2023-04-03T05:33:58;1.10;99.90
20139;DHT22;10230;51.502;10.800;2023-04-03T05:36:23;1.20;99.90
20139;DHT22;10230;51.502;10.800;2023-04-03T05:38:49;1.20;99.90
20139;DHT22;10230;51.502;10.800;2023-04-03T05:41:15;1.20;99.90
20139;DHT22;10230;51.502;10.800;2023-04-03T05:43:41;1.30;99.90
20139;DHT22;10230;51.502;10.800;2023-04-03T05:46:15;1.30;99.90
20139;DHT22;10230;51.502;10.800;2023-04-03T05:48:41;1.40;99.90
20139;DHT22;10230;51.502;10.800;2023-04-03T05:51:15;1.40;99.90
20139;DHT22;10230;51.502;10.800;2023-04-03T05:53:41;1.40;99.90
20139;DHT22;10230;51.502;10.800;2023-04-03T05:56:08;1.50;99.90
20139;DHT22;10230;51.502;10.800;2023-04-03T05:58:34;1.50;99.90
20139;DHT22;10230;51.502;10.800;2023-04-03T06:00:59;1.60;99.90
20139;DHT22;10230;51.502;10.800;2023-04-03T06:03:25;1.60;99.90
20139;DHT22;10230;51.502;10.800;2023-04-03T06:05:52;1.60;99.90
20139;DHT22;10230;51.502;10.800;2023-04-03T06:08:17;1.70;99.90
20139;DHT22;10230;51.502;10.800;2023-04-03T06:10:44;1.80;99.90
20139;DHT22;10230;51.502;10.800;2023-04-03T06:13:10;1.90;99.90
20139;DHT22;10230;51.502;10.800;2023-04-03T06:15:36;2.00;99.90
20139;DHT22;10230;51.502;10.800;2023-04-03T06:18:03;2.10;99.90
20139;DHT22;10230;51.502;10.800;2023-04-03T06:20:29;2.20;99.90
20139;DHT22;10230;51.502;10.800;2023-04-03T06:22:54;2.30;99.90
20139;DHT22;10230;51.502;10.800;2023-04-03T06:25:20;2.40;99.90
20139;DHT22;10230;51.502;10.800;2023-04-03T06:27:46;2.60;99.90
20139;DHT22;10230;51.502;10.800;2023-04-03T06:30:12;2.70;99.90
20139;DHT22;10230;51.502;10.800;2023-04-03T06:32:38;2.80;99.90
20139;DHT22;10230;51.502;10.800;2023-04-03T06:35:05;2.90;99.90
20139;DHT22;10230;51.502;10.800;2023-04-03T06:37:31;3.00;99.90
20139;DHT22;10230;51.502;10.800;2023-04-03T06:39:58;3.10;99.90
20139;DHT22;10230;51.502;10.800;2023-04-03T06:42:24;3.10;99.90
20139;DHT22;10230;51.502;10.800;2023-04-03T06:44:49;3.20;99.90
20139;DHT22;10230;51.502;10.800;2023-04-03T06:54:37;3.60;99.90
20139;DHT22;10230;51.502;10.800;2023-04-03T06:57:03;3.70;99.90
20139;DHT22;10230;51.502;10.800;2023-04-03T06:59:29;3.80;99.90
20139;DHT22;10230;51.502;10.800;2023-04-03T07:01:55;3.90;99.90
20139;DHT22;10230;51.502;10.800;2023-04-03T07:04:21;4.00;99.90
20139;DHT22;10230;51.502;10.800;2023-04-03T07:23:53;4.90;99.90
20139;DHT22;10230;51.502;10.800;2023-04-03T07:26:19;5.00;99.90
20139;DHT22;10230;51.502;10.800;2023-04-03T07:33:41;5.70;99.90
20139;DHT22;10230;51.502;10.800;2023-04-03T07:36:08;5.80;99.90
20139;DHT22;10230;51.502;10.800;2023-04-03T07:38:35;6.10;99.90
20139;DHT22;10230;51.502;10.800;2023-04-03T07:41:03;6.40;99.90
20139;DHT22;10230;51.502;10.800;2023-04-03T07:43:29;6.90;99.90
20139;DHT22;10230;51.502;10.800;2023-04-03T07:50:50;9.20;99.90
20139;DHT22;10230;51.502;10.800;2023-04-03T07:58:16;11.30;99.90
20139;DHT22;10230;51.502;10.800;2023-04-03T08:00:42;11.60;99.90
20139;DHT22;10230;51.502;10.800;2023-04-03T08:39:46;24.40;74.00
20139;DHT22;10230;51.502;10.800;2023-04-03T08:49:56;28.20;81.40
20139;DHT22;10230;51.502;10.800;2023-04-03T08:52:36;29.40;61.40
20139;DHT22;10230;51.502;10.800;2023-04-03T08:55:13;30.70;66.80
20139;DHT22;10230;51.502;10.800;2023-04-03T10:34:33;26.90;33.20
20139;DHT22;10230;51.502;10.800;2023-04-03T10:40:56;29.20;30.70
20139;DHT22;10230;51.502;10.800;2023-04-03T14:45:02;11.20;91.90
20139;DHT22;10230;51.502;10.800;2023-04-03T15:04:57;10.60;91.40
20139;DHT22;10230;51.502;10.800;2023-04-03T15:07:25;10.60;86.90
20139;DHT22;10230;51.502;10.800;2023-04-03T15:09:51;10.60;86.70
20139;DHT22;10230;51.502;10.800;2023-04-03T15:12:18;10.70;88.50
20139;DHT22;10230;51.502;10.800;2023-04-03T15:14:44;10.70;87.20
20139;DHT22;10230;51.502;10.800;2023-04-03T15:17:17;10.60;87.70
20139;DHT22;10230;51.502;10.800;2023-04-03T15:19:45;10.60;88.10
20139;DHT22;10230;51.502;10.800;2023-04-03T15:22:19;10.50;87.60
20139;DHT22;10230;51.502;10.800;2023-04-03T15:24:45;10.40;80.00
20139;DHT22;10230;51.502;10.800;2023-04-03T15:27:12;10.20;90.30
20139;DHT22;10230;51.502;10.800;2023-04-03T15:29:39;10.00;90.50
20139;DHT22;10230;51.502;10.800;2023-04-03T15:32:05;9.90;81.50
20139;DHT22;10230;51.502;10.800;2023-04-03T15:36:57;9.70;71.20
20139;DHT22;10230;51.502;10.800;2023-04-03T15:39:24;9.60;66.30
20139;DHT22;10230;51.502;10.800;2023-04-03T15:41:50;9.50;79.90
20139;DHT22;10230;51.502;10.800;2023-04-03T15:44:17;9.50;80.60
20139;DHT22;10230;51.502;10.800;2023-04-03T15:46:44;9.40;88.30
20139;DHT22;10230;51.502;10.800;2023-04-03T15:49:11;9.30;88.70
20139;DHT22;10230;51.502;10.800;2023-04-03T15:51:37;9.20;88.40
20139;DHT22;10230;51.502;10.800;2023-04-03T15:54:02;9.10;62.50
20139;DHT22;10230;51.502;10.800;2023-04-03T15:56:28;8.90;70.50
20139;DHT22;10230;51.502;10.800;2023-04-03T15:58:54;8.90;69.10
20139;DHT22;10230;51.502;10.800;2023-04-03T16:01:19;8.80;76.10
20139;DHT22;10230;51.502;10.800;2023-04-03T16:03:46;8.70;81.00
20139;DHT22;10230;51.502;10.800;2023-04-03T16:06:15;8.80;82.70
20139;DHT22;10230;51.502;10.800;2023-04-03T16:08:42;8.80;86.10
20139;DHT22;10230;51.502;10.800;2023-04-03T16:11:08;8.80;86.40
20139;DHT22;10230;51.502;10.800;2023-04-03T16:13:35;8.70;88.70
20139;DHT22;10230;51.502;10.800;2023-04-03T16:16:01;8.60;93.50
20139;DHT22;10230;51.502;10.800;2023-04-03T16:18:28;8.50;96.90
20139;DHT22;10230;51.502;10.800;2023-04-03T16:20:54;8.40;97.00
20139;DHT22;10230;51.502;10.800;2023-04-03T16:23:20;8.30;74.90
20139;DHT22;10230;51.502;10.800;2023-04-03T16:25:46;8.20;67.30
20139;DHT22;10230;51.502;10.800;2023-04-03T16:28:13;8.20;75.00
20139;DHT22;10230;51.502;10.800;2023-04-03T16:33:09;8.00;93.00
20139;DHT22;10230;51.502;10.800;2023-04-03T16:35:35;8.00;72.70
20139;DHT22;10230;51.502;10.800;2023-04-03T16:38:01;7.90;70.40
20139;DHT22;10230;51.502;10.800;2023-04-03T16:40:27;7.90;84.10
20139;DHT22;10230;51.502;10.800;2023-04-03T16:45:18;7.70;93.80
20139;DHT22;10230;51.502;10.800;2023-04-03T16:47:44;7.70;93.60
20139;DHT22;10230;51.502;10.800;2023-04-03T16:50:10;7.70;94.20
20139;DHT22;10230;51.502;10.800;2023-04-03T16:57:28;7.50;64.10
20139;DHT22;10230;51.502;10.800;2023-04-03T16:59:54;7.50;65.70
20139;DHT22;10230;51.502;10.800;2023-04-03T17:02:21;7.40;66.00
20139;DHT22;10230;51.502;10.800;2023-04-03T17:04:47;7.30;65.50
20139;DHT22;10230;51.502;10.800;2023-04-03T17:07:12;7.30;66.40
20139;DHT22;10230;51.502;10.800;2023-04-03T17:09:38;7.20;65.90
20139;DHT22;10230;51.502;10.800;2023-04-03T17:12:04;7.10;65.70
20139;DHT22;10230;51.502;10.800;2023-04-03T17:14:29;7.10;66.20
20139;DHT22;10230;51.502;10.800;2023-04-03T17:16:55;7.00;67.00
20139;DHT22;10230;51.502;10.800;2023-04-03T17:19:21;7.00;67.60
20139;DHT22;10230;51.502;10.800;2023-04-03T17:26:41;6.90;68.90
20139;DHT22;10230;51.502;10.800;2023-04-03T17:29:07;6.90;70.40
20139;DHT22;10230;51.502;10.800;2023-04-03T17:31:33;6.80;70.70
20139;DHT22;10230;51.502;10.800;2023-04-03T17:36:29;6.70;71.10
20139;DHT22;10230;51.502;10.800;2023-04-03T17:38:55;6.70;72.30
20139;DHT22;10230;51.502;10.800;2023-04-03T17:41:21;6.60;72.60
20139;DHT22;10230;51.502;10.800;2023-04-03T17:43:47;6.60;73.10
20139;DHT22;10230;51.502;10.800;2023-04-03T17:46:12;6.50;73.50
20139;DHT22;10230;51.502;10.800;2023-04-03T17:48:39;6.50;77.20
20139;DHT22;10230;51.502;10.800;2023-04-03T17:51:09;6.50;77.00
20139;DHT22;10230;51.502;10.800;2023-04-03T17:53:35;6.50;81.20
20139;DHT22;10230;51.502;10.800;2023-04-03T17:56:13;6.50;87.80
20139;DHT22;10230;51.502;10.800;2023-04-03T17:58:39;6.40;88.70
20139;DHT22;10230;51.502;10.800;2023-04-03T18:03:37;6.40;75.80
20139;DHT22;10230;51.502;10.800;2023-04-03T18:06:04;6.30;83.20
20139;DHT22;10230;51.502;10.800;2023-04-03T18:08:34;6.30;89.60
20139;DHT22;10230;51.502;10.800;2023-04-03T18:13:27;6.30;99.30
20139;DHT22;10230;51.502;10.800;2023-04-03T18:15:52;6.20;99.60
20139;DHT22;10230;51.502;10.800;2023-04-03T18:18:18;6.20;99.50
20139;DHT22;10230;51.502;10.800;2023-04-03T18:20:43;6.20;99.50
20139;DHT22;10230;51.502;10.800;2023-04-03T18:23:09;6.10;99.90
20139;DHT22;10230;51.502;10.800;2023-04-03T18:30:31;6.00;78.40
20139;DHT22;10230;51.502;10.800;2023-04-03T18:32:58;6.00;79.00
20139;DHT22;10230;51.502;10.800;2023-04-03T18:35:23;6.00;80.00
20139;DHT22;10230;51.502;10.800;2023-04-03T18:37:49;5.90;80.50
20139;DHT22;10230;51.502;10.800;2023-04-03T18:40:15;5.90;82.50
20139;DHT22;10230;51.502;10.800;2023-04-03T18:42:41;5.90;94.10
20139;DHT22;10230;51.502;10.800;2023-04-03T18:45:10;5.90;94.20
20139;DHT22;10230;51.502;10.800;2023-04-03T18:47:36;5.90;95.80
20139;DHT22;10230;51.502;10.800;2023-04-03T18:50:06;5.90;97.50
20139;DHT22;10230;51.502;10.800;2023-04-03T18:52:32;5.80;95.70
20139;DHT22;10230;51.502;10.800;2023-04-03T18:54:58;5.80;92.50
20139;DHT22;10230;51.502;10.800;2023-04-03T18:57:24;5.80;93.00
20139;DHT22;10230;51.502;10.800;2023-04-03T18:59:51;5.80;90.00
20139;DHT22;10230;51.502;10.800;2023-04-03T19:02:17;5.70;89.30
20139;DHT22;10230;51.502;10.800;2023-04-03T19:04:46;5.60;90.30
20139;DHT22;10230;51.502;10.800;2023-04-03T19:07:12;5.60;90.30
20139;DHT22;10230;51.502;10.800;2023-04-03T19:09:38;5.50;90.70
20139;DHT22;10230;51.502;10.800;2023-04-03T19:14:32;5.50;91.80
20139;DHT22;10230;51.502;10.800;2023-04-03T19:16:57;5.40;91.40
20139;DHT22;10230;51.502;10.800;2023-04-03T19:19:23;5.40;91.50
20139;DHT22;10230;51.502;10.800;2023-04-03T19:21:49;5.30;86.90
20139;DHT22;10230;51.502;10.800;2023-04-03T19:24:15;5.30;87.80
20139;DHT22;10230;51.502;10.800;2023-04-03T19:26:41;5.30;92.30
20139;DHT22;10230;51.502;10.800;2023-04-03T19:29:07;5.30;99.90
20139;DHT22;10230;51.502;10.800;2023-04-03T19:31:35;5.30;99.90
20139;DHT22;10230;51.502;10.800;2023-04-03T19:34:02;5.20;99.90
20139;DHT22;10230;51.502;10.800;2023-04-03T19:36:29;5.20;99.90
20139;DHT22;10230;51.502;10.800;2023-04-03T19:38:55;5.20;99.90
20139;DHT22;10230;51.502;10.800;2023-04-03T19:41:23;5.20;99.90
20139;DHT22;10230;51.502;10.800;2023-04-03T19:43:51;5.30;99.90
20139;DHT22;10230;51.502;10.800;2023-04-03T19:46:21;5.30;99.90
20139;DHT22;10230;51.502;10.800;2023-04-03T19:48:46;5.30;99.90
20139;DHT22;10230;51.502;10.800;2023-04-03T19:51:13;5.20;99.90
20139;DHT22;10230;51.502;10.800;2023-04-03T19:53:39;5.20;99.90
20139;DHT22;10230;51.502;10.800;2023-04-03T19:56:05;5.20;99.90
20139;DHT22;10230;51.502;10.800;2023-04-03T19:58:31;5.20;99.90
20139;DHT22;10230;51.502;10.800;2023-04-03T20:00:57;5.20;99.90
20139;DHT22;10230;51.502;10.800;2023-04-03T20:03:23;5.20;99.90
20139;DHT22;10230;51.502;10.800;2023-04-03T20:05:49;5.10;99.90
20139;DHT22;10230;51.502;10.800;2023-04-03T20:42:42;4.80;99.90
20139;DHT22;10230;51.502;10.800;2023-04-03T20:45:08;4.80;94.90
20139;DHT22;10230;51.502;10.800;2023-04-03T20:47:34;4.70;96.30
20139;DHT22;10230;51.502;10.800;2023-04-03T20:49:59;4.70;99.90
20139;DHT22;10230;51.502;10.800;2023-04-03T20:57:18;4.40;99.90
20139;DHT22;10230;51.502;10.800;2023-04-03T20:59:45;4.60;99.90
20139;DHT22;10230;51.502;10.800;2023-04-03T21:04:46;4.50;95.30
20139;DHT22;10230;51.502;10.800;2023-04-03T21:21:24;4.50;99.90
20139;DHT22;10230;51.502;10.800;2023-04-03T21:23:52;4.50;99.90
20139;DHT22;10230;51.502;10.800;2023-04-03T21:26:19;4.40;99.90
20139;DHT22;10230;51.502;10.800;2023-04-03T21:28:47;4.50;99.90
20139;DHT22;10230;51.502;10.800;2023-04-03T21:31:12;4.40;99.90
20139;DHT22;10230;51.502;10.800;2023-04-03T21:33:39;4.40;99.90
20139;DHT22;10230;51.502;10.800;2023-04-03T21:36:05;4.40;99.90
20139;DHT22;10230;51.502;10.800;2023-04-03T21:38:32;4.40;99.90
20139;DHT22;10230;51.502;10.800;2023-04-03T21:41:00;4.40;99.90
20139;DHT22;10230;51.502;10.800;2023-04-03T21:45:53;4.20;99.90
20139;DHT22;10230;51.502;10.800;2023-04-03T21:48:22;4.10;98.40
20139;DHT22;10230;51.502;10.800;2023-04-03T21:50:49;4.00;99.90
20139;DHT22;10230;51.502;10.800;2023-04-03T21:53:16;3.80;93.60
20139;DHT22;10230;51.502;10.800;2023-04-03T21:55:54;3.80;99.90
20139;DHT22;10230;51.502;10.800;2023-04-03T21:58:28;3.70;99.90
20139;DHT22;10230;51.502;10.800;2023-04-03T22:03:21;3.50;93.90
20139;DHT22;10230;51.502;10.800;2023-04-03T22:05:48;3.40;94.70
20139;DHT22;10230;51.502;10.800;2023-04-03T22:08:13;3.40;95.10
20139;DHT22;10230;51.502;10.800;2023-04-03T22:10:39;3.30;95.70
20139;DHT22;10230;51.502;10.800;2023-04-03T22:13:06;3.30;96.10
20139;DHT22;10230;51.502;10.800;2023-04-03T22:15:37;3.20;96.80
20139;DHT22;10230;51.502;10.800;2023-04-03T22:20:41;3.10;97.80
20139;DHT22;10230;51.502;10.800;2023-04-03T22:23:06;3.00;98.60
20139;DHT22;10230;51.502;10.800;2023-04-03T22:25:32;3.00;99.10
20139;DHT22;10230;51.502;10.800;2023-04-03T22:27:58;3.00;99.20
20139;DHT22;10230;51.502;10.800;2023-04-03T22:30:23;2.90;99.90
20139;DHT22;10230;51.502;10.800;2023-04-03T22:32:49;2.80;99.90
20139;DHT22;10230;51.502;10.800;2023-04-03T22:35:14;2.80;99.90
20139;DHT22;10230;51.502;10.800;2023-04-03T22:37:40;2.80;99.90
20139;DHT22;10230;51.502;10.800;2023-04-03T22:40:07;2.70;99.90
20139;DHT22;10230;51.502;10.800;2023-04-03T22:42:32;2.70;99.90
20139;DHT22;10230;51.502;10.800;2023-04-03T22:44:58;2.60;99.90
20139;DHT22;10230;51.502;10.800;2023-04-03T22:47:24;2.60;99.90
20139;DHT22;10230;51.502;10.800;2023-04-03T22:49:50;2.60;99.90
20139;DHT22;10230;51.502;10.800;2023-04-03T22:52:17;2.50;99.90
20139;DHT22;10230;51.502;10.800;2023-04-03T22:54:43;2.50;99.90
20139;DHT22;10230;51.502;10.800;2023-04-03T22:57:09;2.40;99.90
20139;DHT22;10230;51.502;10.800;2023-04-03T22:59:35;2.40;99.90
20139;DHT22;10230;51.502;10.800;2023-04-03T23:02:01;2.40;99.90
20139;DHT22;10230;51.502;10.800;2023-04-03T23:04:27;2.30;99.90
20139;DHT22;10230;51.502;10.800;2023-04-03T23:06:53;2.30;99.90
20139;DHT22;10230;51.502;10.800;2023-04-03T23:09:18;2.20;99.90
20139;DHT22;10230;51.502;10.800;2023-04-03T23:11:44;2.20;99.90
20139;DHT22;10230;51.502;10.800;2023-04-03T23:14:09;2.20;99.90
20139;DHT22;10230;51.502;10.800;2023-04-03T23:16:35;2.10;99.90
20139;DHT22;10230;51.502;10.800;2023-04-03T23:19:01;2.10;99.90
20139;DHT22;10230;51.502;10.800;2023-04-03T23:21:27;2.10;99.90
20139;DHT22;10230;51.502;10.800;2023-04-03T23:23:52;2.10;99.90
20139;DHT22;10230;51.502;10.800;2023-04-03T23:26:18;2.10;99.90
20139;DHT22;10230;51.502;10.800;2023-04-03T23:28:43;2.10;99.90
20139;DHT22;10230;51.502;10.800;2023-04-03T23:31:09;2.10;99.90
20139;DHT22;10230;51.502;10.800;2023-04-03T23:33:36;2.10;99.90
20139;DHT22;10230;51.502;10.800;2023-04-03T23:36:06;2.10;99.90
20139;DHT22;10230;51.502;10.800;2023-04-03T23:38:33;2.10;99.90
20139;DHT22;10230;51.502;10.800;2023-04-03T23:40:59;2.10;99.90
20139;DHT22;10230;51.502;10.800;2023-04-03T23:43:25;2.20;99.90
20139;DHT22;10230;51.502;10.800;2023-04-03T23:45:52;2.20;99.90
20139;DHT22;10230;51.502;10.800;2023-04-03T23:48:18;2.20;99.90
20139;DHT22;10230;51.502;10.800;2023-04-03T23:50:44;2.20;99.90
20139;DHT22;10230;51.502;10.800;2023-04-03T23:53:10;2.20;99.90
20139;DHT22;10230;51.502;10.800;2023-04-03T23:55:37;2.20;99.90
20139;DHT22;10230;51.502;10.800;2023-04-03T23:58:03;2.20;99.90
